createdAt,value
2022-11-19T00:04:15.411Z,5.40
2022-11-19T00:09:20.825Z,4.90
2022-11-19T00:14:25.980Z,4.57
2022-11-19T00:19:29.846Z,4.70
2022-11-19T00:24:35.016Z,5.03
2022-11-19T00:29:38.513Z,4.90
2022-11-19T00:34:42.030Z,4.87
2022-11-19T00:39:47.031Z,3.40
2022-11-19T00:44:50.741Z,3.20
2022-11-19T00:49:54.287Z,2.60
2022-11-19T00:54:59.520Z,2.10
2022-11-19T01:00:03.152Z,2.47
2022-11-19T01:05:07.693Z,1.60
2022-11-19T01:10:12.920Z,2.07
2022-11-19T01:15:16.504Z,2.00
2022-11-19T01:20:20.321Z,2.10
2022-11-19T01:25:25.332Z,2.00
2022-11-19T01:30:28.899Z,3.00
2022-11-19T01:35:32.491Z,2.60
2022-11-19T01:40:43.776Z,2.30
2022-11-19T01:45:49.519Z,2.00
2022-11-19T01:50:56.697Z,3.03
2022-11-19T01:56:05.155Z,3.90
2022-11-19T02:01:09.993Z,4.33
2022-11-19T02:06:14.079Z,4.10
2022-11-19T02:11:53.607Z,4.37
2022-11-19T02:17:06.537Z,4.40
2022-11-19T02:22:24.150Z,2.40
2022-11-19T02:27:57.277Z,2.77
2022-11-19T02:33:09.388Z,3.10
2022-11-19T02:38:24.495Z,4.30
2022-11-19T02:43:34.540Z,4.07
2022-11-19T02:48:41.971Z,4.10
2022-11-19T02:53:48.331Z,5.30
2022-11-19T02:59:12.663Z,5.50
2022-11-19T03:04:31.270Z,7.57
2022-11-19T03:09:38.123Z,6.00
2022-11-19T03:15:09.732Z,6.03
2022-11-19T03:20:24.507Z,6.10
2022-11-19T03:25:31.581Z,4.20
2022-11-19T03:30:35.481Z,4.53
2022-11-19T03:35:44.796Z,5.20
2022-11-19T03:40:50.276Z,4.50
2022-11-19T03:45:56.006Z,4.90
2022-11-19T03:51:09.987Z,4.90
2022-11-19T03:56:19.007Z,5.97
2022-11-19T04:01:22.981Z,8.20
2022-11-19T04:06:27.990Z,6.23
2022-11-19T04:11:31.559Z,7.30
2022-11-19T04:16:35.082Z,8.00
2022-11-19T04:21:40.110Z,8.00
2022-11-19T04:26:43.705Z,7.70
2022-11-19T04:31:47.340Z,7.00
2022-11-19T04:36:52.310Z,5.67
2022-11-19T04:41:56.036Z,6.57
2022-11-19T04:46:59.942Z,5.90
2022-11-19T04:52:05.339Z,5.87
2022-11-19T04:57:08.861Z,5.93
2022-11-19T05:02:12.389Z,6.80
2022-11-19T05:07:17.499Z,6.30
2022-11-19T05:12:21.052Z,6.33
2022-11-19T05:17:24.636Z,5.87
2022-11-19T05:22:29.711Z,6.20
2022-11-19T05:27:35.806Z,6.23
2022-11-19T05:32:39.589Z,6.83
2022-11-19T05:37:44.661Z,5.70
2022-11-19T05:42:48.230Z,6.17
2022-11-19T05:47:56.134Z,6.30
2022-11-19T05:53:01.216Z,6.93
2022-11-19T05:58:04.730Z,6.83
2022-11-19T06:03:08.536Z,5.87
2022-11-19T06:08:13.879Z,5.13
2022-11-19T06:13:18.924Z,5.87
2022-11-19T06:18:22.710Z,5.83
2022-11-19T06:23:33.293Z,5.93
2022-11-19T06:28:58.847Z,5.50
2022-11-19T06:34:06.768Z,6.07
2022-11-19T06:39:35.448Z,6.37
2022-11-19T06:45:00.385Z,7.17
2022-11-19T06:50:35.250Z,7.00
2022-11-19T06:55:55.430Z,6.53
2022-11-19T07:08:39.488Z,7.03
2022-11-19T07:14:46.475Z,7.10
2022-11-19T07:19:53.095Z,8.97
2022-11-19T07:25:00.904Z,8.63
2022-11-19T07:30:20.708Z,8.23
2022-11-19T07:35:25.944Z,7.37
2022-11-19T07:40:47.485Z,6.67
2022-11-19T07:46:03.976Z,11.67
2022-11-19T07:51:49.978Z,8.90
2022-11-19T07:56:56.787Z,8.40
2022-11-19T08:02:04.556Z,8.77
2022-11-19T08:07:08.765Z,8.93
2022-11-19T08:12:12.593Z,9.60
2022-11-19T08:17:35.009Z,9.40
2022-11-19T08:22:45.457Z,10.20
2022-11-19T08:28:15.749Z,11.00
2022-11-19T08:44:40.020Z,10.20
2022-11-19T08:50:06.681Z,9.93
2022-11-19T08:55:11.445Z,10.10
2022-11-19T09:00:16.840Z,10.17
2022-11-19T09:05:24.529Z,10.67
2022-11-19T09:10:30.495Z,11.00
2022-11-19T10:44:03.925Z,8.00
2022-11-19T10:57:07.271Z,7.83
2022-11-19T11:09:51.801Z,5.60
2022-11-19T11:26:49.622Z,2.17
2022-11-19T12:23:30.916Z,1.10
2022-11-19T16:04:58.047Z,2.77
2022-11-19T16:10:02.287Z,2.57
2022-11-19T16:15:39.460Z,3.20
2022-11-19T16:20:48.208Z,2.83
2022-11-19T16:25:53.016Z,2.90
2022-11-19T16:31:02.285Z,2.33
2022-11-19T16:36:20.177Z,2.63
2022-11-19T16:41:43.760Z,2.30
2022-11-19T16:46:48.026Z,2.03
2022-11-19T16:51:57.306Z,2.20
2022-11-19T16:57:07.779Z,2.17
2022-11-19T17:02:17.791Z,1.87
2022-11-19T17:07:32.901Z,1.90
2022-11-19T17:12:38.279Z,1.70
2022-11-19T17:17:43.643Z,1.80
2022-11-19T17:22:49.233Z,1.80
2022-11-19T17:27:56.664Z,2.20
2022-11-19T17:33:04.301Z,3.00
2022-11-19T17:38:13.822Z,2.60
2022-11-19T17:43:38.002Z,2.70
2022-11-19T17:48:43.588Z,3.37
2022-11-19T17:53:51.602Z,2.97
2022-11-19T17:58:56.177Z,3.60
2022-11-19T18:04:00.413Z,4.47
2022-11-19T18:09:06.523Z,3.90
2022-11-19T18:14:11.261Z,4.07
2022-11-19T18:19:25.673Z,4.87
2022-11-19T18:24:31.548Z,3.40
2022-11-19T18:29:37.620Z,2.30
2022-11-19T18:34:42.444Z,1.70
2022-11-19T18:39:50.152Z,1.57
2022-11-19T18:44:54.077Z,1.40
2022-11-19T18:50:00.162Z,1.37
2022-11-19T18:55:11.492Z,1.23
2022-11-19T19:00:16.417Z,2.20
2022-11-19T19:05:21.890Z,2.73
2022-11-19T19:10:29.843Z,3.80
2022-11-19T19:15:34.287Z,4.13
2022-11-19T19:20:39.665Z,5.07
2022-11-19T19:25:45.827Z,4.47
2022-11-19T19:30:52.410Z,4.90
2022-11-19T19:35:57.263Z,4.80
2022-11-19T19:41:07.472Z,3.30
2022-11-19T19:46:16.749Z,2.30
2022-11-19T19:51:23.647Z,4.17
2022-11-19T19:56:33.537Z,3.33
2022-11-19T20:01:39.241Z,3.17
2022-11-19T20:06:50.890Z,3.43
2022-11-19T20:11:57.580Z,3.47
2022-11-19T20:17:01.952Z,3.30
2022-11-19T20:22:14.530Z,3.80
2022-11-19T20:27:24.280Z,4.33
2022-11-19T20:32:28.804Z,2.60
2022-11-19T20:37:34.013Z,1.83
2022-11-19T20:42:59.375Z,4.60
2022-11-19T20:48:03.383Z,3.70
2022-11-19T20:53:07.346Z,4.13
2022-11-19T20:58:15.502Z,4.17
2022-11-19T21:03:19.608Z,4.80
2022-11-19T21:08:23.728Z,4.60
2022-11-19T21:13:30.264Z,4.37
2022-11-19T21:18:36.753Z,3.90
2022-11-19T21:23:41.803Z,3.20
2022-11-19T21:28:49.916Z,4.50
2022-11-19T21:33:55.217Z,4.00
2022-11-19T21:38:59.023Z,3.13
2022-11-19T21:44:05.316Z,3.33
2022-11-19T21:49:09.779Z,3.67
2022-11-19T21:54:13.680Z,3.50
2022-11-19T21:59:18.960Z,3.60
2022-11-19T22:04:22.642Z,3.90
2022-11-19T22:09:26.613Z,3.40
2022-11-19T22:14:31.686Z,3.20
2022-11-19T22:19:36.209Z,3.20
2022-11-19T22:30:05.884Z,3.17
2022-11-19T22:35:10.428Z,3.30
2022-11-19T22:40:14.785Z,2.97
2022-11-19T22:45:19.828Z,2.80
2022-11-19T22:50:23.397Z,2.80
2022-11-19T22:55:27.058Z,3.17
2022-11-19T23:00:44.169Z,2.63
2022-11-19T23:05:50.913Z,3.30
2022-11-19T23:10:59.377Z,2.70
2022-11-19T23:16:07.261Z,2.50
2022-11-19T23:21:12.716Z,2.90
2022-11-19T23:26:18.783Z,3.00
2022-11-19T23:37:11.003Z,3.40
2022-11-19T23:42:14.568Z,3.27
2022-11-19T23:47:20.016Z,3.93
2022-11-19T23:52:23.586Z,3.80
2022-11-19T23:57:27.094Z,4.17
